Información del aeropuerto LEBG

Información de pista
Pista 06 Longitud 4393 ft Anchura 98 ft
Elevación 2907 ft Umbral 0 ft Rumbo 56
Pista 24 Longitud 4393 ft Anchura 98 ft
Elevación 2945 ft Umbral 0 ft Rumbo 236
Frecuencias del aeropuerto
Tipo UNIC Nombre UNIC Frecuencia 122.4 MHZ
Radioayudas del aeropuerto
Tipo NDB Nombre Burgos Frecuencia 357 KHZ
Tipo VOR-DME Nombre Burgos Frecuencia 111400 KHZ
Información meteorológica del aeropuerto y NOTAM
ADDS - METARS form results

(0301 UTC 26 September 2020)
Data provider http://aviationweather.gov/metar/data/
 
METAR text: LEBG 260230Z AUTO VRB01KT 9999 FEW043 03/03 Q1024
Conditions at: LEBG (BURGOS/VILLAFRIA, ES) observed 0230 UTC 26 September 2020
Temperature: 3.0°C (37°F)
Dewpoint: 3.0°C (37°F) [RH = 100%]
Pressure (altimeter): 30.24 inches Hg (1024.0 mb)
Winds: variable direction winds at 1 MPH (1 knots; 0.5 m/s)
Visibility: 6 or more miles (10+ km)
Ceiling: at least 12,000 feet AGL
Clouds: few clouds at 4300 feet AGL
Weather: no significant weather observed at this time